createdAt,value
2023-05-03T00:00:08.053Z,38.24
2023-05-03T00:00:31.062Z,38.31
2023-05-03T00:00:53.638Z,37.55
2023-05-03T00:01:15.702Z,37.74
2023-05-03T00:01:37.452Z,38.60
2023-05-03T00:01:59.181Z,38.73
2023-05-03T00:02:21.955Z,39.00
2023-05-03T00:02:44.933Z,38.86
2023-05-03T00:03:07.116Z,38.87
2023-05-03T00:03:29.021Z,38.87
2023-05-03T00:03:52.493Z,38.86
2023-05-03T00:04:16.974Z,38.78
2023-05-03T00:04:38.720Z,38.86
2023-05-03T00:05:00.905Z,39.02
2023-05-03T00:05:22.870Z,38.87
2023-05-03T00:05:45.605Z,38.60
2023-05-03T00:06:11.476Z,38.77
2023-05-03T00:06:33.310Z,38.65
2023-05-03T00:06:55.639Z,38.49
2023-05-03T00:07:18.307Z,38.17
2023-05-03T00:07:42.195Z,38.40
2023-05-03T00:08:04.568Z,38.61
2023-05-03T00:08:27.143Z,38.34
2023-05-03T00:08:48.910Z,38.07
2023-05-03T00:09:10.814Z,38.02
2023-05-03T00:09:33.721Z,37.86
2023-05-03T00:09:56.310Z,37.67
2023-05-03T00:10:18.202Z,38.67
2023-05-03T00:10:39.870Z,39.28
2023-05-03T00:11:01.570Z,39.00
2023-05-03T00:11:24.240Z,38.92
2023-05-03T00:11:45.943Z,38.48
2023-05-03T00:12:07.573Z,38.66
2023-05-03T00:12:29.174Z,38.49
2023-05-03T00:12:51.912Z,38.43
2023-05-03T00:13:13.582Z,38.65
2023-05-03T00:13:35.195Z,38.68
2023-05-03T00:13:56.780Z,38.18
2023-05-03T00:14:19.334Z,38.35
2023-05-03T00:14:40.988Z,38.01
2023-05-03T00:15:47.269Z,37.77
2023-05-03T00:16:08.874Z,37.68
2023-05-03T00:16:30.716Z,37.97
2023-05-03T00:16:54.065Z,37.99
2023-05-03T00:17:16.679Z,38.10
2023-05-03T00:17:38.438Z,38.17
2023-05-03T00:18:00.234Z,38.64
2023-05-03T00:18:22.594Z,38.66
2023-05-03T00:18:46.381Z,38.37
2023-05-03T00:19:14.952Z,38.06
2023-05-03T00:19:42.456Z,37.71
2023-05-03T00:20:05.409Z,38.08
2023-05-03T00:20:28.053Z,38.62
2023-05-03T00:20:50.287Z,38.59
2023-05-03T00:21:12.395Z,38.53
2023-05-03T00:21:34.065Z,38.19
2023-05-03T00:21:55.802Z,38.06
2023-05-03T00:22:18.462Z,37.92
2023-05-03T00:22:40.129Z,38.11
2023-05-03T00:23:02.050Z,38.07
2023-05-03T00:23:24.810Z,38.02
2023-05-03T00:23:46.520Z,38.18
2023-05-03T00:24:08.241Z,38.14
2023-05-03T00:24:29.914Z,38.11
2023-05-03T00:24:52.522Z,38.22
2023-05-03T00:25:15.248Z,38.36
2023-05-03T00:25:36.958Z,38.00
2023-05-03T00:25:59.304Z,37.92
2023-05-03T00:26:22.449Z,37.91
2023-05-03T00:26:44.651Z,37.89
2023-05-03T00:27:06.663Z,37.97
2023-05-03T00:27:28.685Z,37.62
2023-05-03T00:27:51.314Z,37.66
2023-05-03T00:28:12.991Z,38.31
2023-05-03T00:28:34.568Z,38.20
2023-05-03T00:28:56.224Z,38.06
2023-05-03T00:29:21.103Z,38.33
2023-05-03T00:29:43.701Z,38.34
2023-05-03T00:30:06.579Z,38.02
2023-05-03T00:30:28.164Z,37.91
2023-05-03T00:30:51.481Z,38.11
2023-05-03T00:31:14.117Z,38.06
2023-05-03T00:31:36.044Z,37.89
2023-05-03T00:31:57.818Z,38.16
2023-05-03T00:32:20.694Z,38.05
2023-05-03T00:32:42.421Z,38.82
2023-05-03T00:33:05.234Z,38.87
2023-05-03T00:33:26.925Z,38.73
2023-05-03T00:33:48.536Z,38.93
2023-05-03T00:34:10.613Z,38.67
2023-05-03T00:34:33.228Z,38.32
2023-05-03T00:34:56.056Z,38.94
2023-05-03T00:35:18.103Z,38.60
2023-05-03T00:35:39.695Z,38.27
2023-05-03T00:36:08.241Z,38.30
2023-05-03T00:36:30.968Z,38.81
2023-05-03T00:36:52.630Z,38.36
2023-05-03T00:37:14.226Z,38.11
2023-05-03T00:37:37.829Z,37.68
2023-05-03T00:37:59.688Z,38.10
2023-05-03T00:38:21.777Z,38.48
2023-05-03T00:38:43.441Z,38.41
2023-05-03T00:39:06.301Z,38.34
2023-05-03T00:39:29.808Z,38.69
2023-05-03T00:39:52.659Z,38.59
2023-05-03T00:40:18.491Z,37.99
2023-05-03T00:40:40.355Z,37.49
2023-05-03T00:41:03.112Z,37.65
2023-05-03T00:41:24.728Z,38.32
2023-05-03T00:41:47.344Z,38.24
2023-05-03T00:42:09.009Z,38.91
2023-05-03T00:42:30.648Z,39.04
2023-05-03T00:42:52.360Z,38.03
2023-05-03T00:43:14.890Z,37.67
2023-05-03T00:43:37.678Z,38.27
2023-05-03T00:43:59.325Z,37.96
2023-05-03T00:44:20.915Z,38.01
2023-05-03T00:44:43.690Z,38.06
2023-05-03T00:45:06.733Z,38.17
2023-05-03T00:45:30.602Z,38.11
2023-05-03T00:45:59.385Z,38.25
2023-05-03T00:46:31.710Z,38.17
2023-05-03T00:46:54.511Z,37.73
2023-05-03T00:47:16.749Z,38.02
2023-05-03T00:47:38.716Z,38.26
2023-05-03T00:48:01.064Z,38.19
2023-05-03T00:48:23.923Z,37.86
2023-05-03T00:48:46.557Z,38.29
2023-05-03T00:49:08.228Z,38.11
2023-05-03T00:49:29.949Z,38.18
2023-05-03T00:49:52.647Z,37.98
2023-05-03T00:50:14.363Z,38.02
2023-05-03T00:50:37.230Z,38.11
2023-05-03T00:51:00.719Z,38.24
2023-05-03T00:51:24.360Z,38.13
2023-05-03T00:51:46.010Z,38.38
2023-05-03T00:52:09.019Z,38.41
2023-05-03T00:52:31.017Z,38.44
2023-05-03T00:52:52.792Z,38.32
2023-05-03T00:53:15.794Z,38.64
2023-05-03T00:53:37.639Z,38.67
2023-05-03T00:53:59.528Z,38.38
2023-05-03T00:54:21.762Z,38.35
2023-05-03T00:54:44.475Z,38.67
2023-05-03T00:55:08.648Z,38.66
2023-05-03T00:55:31.445Z,38.31
2023-05-03T00:55:54.108Z,38.22
2023-05-03T00:56:20.804Z,38.03
2023-05-03T00:56:51.143Z,38.19
2023-05-03T00:57:13.865Z,38.52
2023-05-03T00:57:36.546Z,38.52
2023-05-03T00:57:58.131Z,38.98
2023-05-03T00:58:20.326Z,38.79
2023-05-03T00:58:41.998Z,39.04
2023-05-03T00:59:04.697Z,38.79
2023-05-03T00:59:27.393Z,38.86
2023-05-03T00:59:49.723Z,38.57
2023-05-03T01:00:13.453Z,38.59
2023-05-03T01:00:37.018Z,38.50
2023-05-03T01:01:00.773Z,39.13
2023-05-03T01:01:22.669Z,39.46
2023-05-03T01:01:47.965Z,39.22
2023-05-03T01:02:10.664Z,39.04
2023-05-03T01:02:32.514Z,39.16
2023-05-03T01:02:54.524Z,39.46
2023-05-03T01:03:16.387Z,39.38
2023-05-03T01:03:41.232Z,38.99
2023-05-03T01:04:07.407Z,39.03
2023-05-03T01:04:30.048Z,38.81
2023-05-03T01:04:53.665Z,38.75
2023-05-03T01:05:15.853Z,39.15
2023-05-03T01:05:49.603Z,39.02
2023-05-03T01:06:18.034Z,39.39
2023-05-03T01:06:48.261Z,39.44
2023-05-03T01:07:23.620Z,39.28
2023-05-03T01:07:53.570Z,39.31
2023-05-03T01:08:23.997Z,38.94
2023-05-03T01:08:54.806Z,39.25
2023-05-03T01:09:24.335Z,39.25
2023-05-03T01:09:53.561Z,39.43
2023-05-03T01:10:23.252Z,39.14
2023-05-03T01:10:53.124Z,39.16
2023-05-03T01:11:22.964Z,39.05
2023-05-03T01:11:52.251Z,38.98
2023-05-03T01:12:25.052Z,39.21
2023-05-03T01:12:56.550Z,39.21
2023-05-03T01:13:27.808Z,39.41
2023-05-03T01:13:58.267Z,39.48
2023-05-03T01:14:28.584Z,39.64
2023-05-03T01:14:59.875Z,39.17
2023-05-03T01:15:33.733Z,39.42
2023-05-03T01:16:06.477Z,39.65
2023-05-03T01:16:35.088Z,39.87
2023-05-03T01:17:02.971Z,39.86
2023-05-03T01:17:29.063Z,39.39
2023-05-03T01:17:54.431Z,39.55
2023-05-03T01:18:20.314Z,39.64
2023-05-03T01:18:48.942Z,39.87
2023-05-03T01:19:20.080Z,39.79
2023-05-03T01:19:45.331Z,39.59
2023-05-03T01:20:11.032Z,39.58
2023-05-03T01:20:35.858Z,39.78
2023-05-03T01:20:59.819Z,39.41
2023-05-03T01:21:22.698Z,39.40
2023-05-03T01:21:51.476Z,39.27
2023-05-03T01:22:22.740Z,39.46
2023-05-03T01:22:56.234Z,39.58
2023-05-03T01:23:31.180Z,39.63
2023-05-03T01:24:00.715Z,39.40
2023-05-03T01:24:24.498Z,39.25
2023-05-03T01:24:51.146Z,39.34
2023-05-03T01:25:15.749Z,39.85
2023-05-03T01:25:38.460Z,39.77
2023-05-03T01:26:00.182Z,39.82
2023-05-03T01:26:23.341Z,39.69
2023-05-03T01:26:45.058Z,39.75
2023-05-03T01:27:09.301Z,40.01
2023-05-03T01:27:31.299Z,40.07
2023-05-03T01:27:53.000Z,39.86
2023-05-03T01:28:14.656Z,39.37
2023-05-03T01:28:37.863Z,39.16
2023-05-03T01:29:00.269Z,39.22
2023-05-03T01:29:21.982Z,39.53
2023-05-03T01:29:44.350Z,39.92
2023-05-03T01:30:09.157Z,39.87
2023-05-03T01:30:32.992Z,40.02
2023-05-03T01:30:56.889Z,39.74
2023-05-03T01:31:23.787Z,40.02
2023-05-03T01:31:53.806Z,40.40
2023-05-03T01:32:22.491Z,39.89
2023-05-03T01:32:55.724Z,39.88
2023-05-03T01:33:27.342Z,40.04
2023-05-03T01:34:02.667Z,40.29
2023-05-03T01:34:33.548Z,40.13
2023-05-03T01:35:06.174Z,39.95
2023-05-03T01:35:37.146Z,40.10
2023-05-03T01:36:05.070Z,40.08
2023-05-03T01:36:32.514Z,39.83
2023-05-03T01:36:58.313Z,39.53
2023-05-03T01:37:20.914Z,39.53
2023-05-03T01:37:43.521Z,39.61
2023-05-03T01:38:05.264Z,40.35
2023-05-03T01:38:29.883Z,39.92
2023-05-03T01:38:51.557Z,39.78
2023-05-03T01:39:18.503Z,40.12
2023-05-03T01:39:46.821Z,40.03
2023-05-03T01:40:10.791Z,40.11
2023-05-03T01:40:40.917Z,39.86
2023-05-03T01:41:09.240Z,40.23
2023-05-03T01:41:33.463Z,39.79
2023-05-03T01:41:56.677Z,39.64
2023-05-03T01:42:20.509Z,39.57
2023-05-03T01:42:42.535Z,39.48
2023-05-03T01:43:05.916Z,39.78
2023-05-03T01:43:31.353Z,39.75
2023-05-03T01:43:54.924Z,39.93
2023-05-03T01:44:17.157Z,39.75
2023-05-03T01:44:41.142Z,39.61
2023-05-03T01:45:04.820Z,39.56
2023-05-03T01:45:26.955Z,39.56
2023-05-03T01:45:50.535Z,39.77
2023-05-03T01:46:14.101Z,39.64
2023-05-03T01:46:43.001Z,39.54
2023-05-03T01:47:07.278Z,39.47
2023-05-03T01:47:28.931Z,39.52
2023-05-03T01:47:51.633Z,39.54
2023-05-03T01:48:16.048Z,39.93
2023-05-03T01:48:37.690Z,39.79
2023-05-03T01:48:59.270Z,39.75
2023-05-03T01:49:21.005Z,39.47
2023-05-03T01:49:44.183Z,39.57
2023-05-03T01:50:08.141Z,39.47
2023-05-03T01:50:29.726Z,39.79
2023-05-03T01:50:51.435Z,39.68
2023-05-03T01:51:13.088Z,39.65
2023-05-03T01:51:35.770Z,39.83
2023-05-03T01:51:57.396Z,39.79
2023-05-03T01:52:18.991Z,39.74
2023-05-03T01:52:40.936Z,39.92
2023-05-03T01:53:02.625Z,39.65
2023-05-03T01:53:25.539Z,39.83
2023-05-03T01:53:47.252Z,40.01
2023-05-03T01:54:08.992Z,40.28
2023-05-03T01:54:30.800Z,40.22
2023-05-03T01:54:53.430Z,40.22
2023-05-03T01:55:15.275Z,40.34
2023-05-03T01:55:38.217Z,40.25
2023-05-03T01:55:59.861Z,40.13
2023-05-03T01:56:22.791Z,40.02
2023-05-03T01:56:44.596Z,40.06
2023-05-03T01:57:06.290Z,40.29
2023-05-03T01:57:28.032Z,40.23
2023-05-03T01:57:50.723Z,40.04
2023-05-03T01:58:13.378Z,39.75
2023-05-03T01:58:35.036Z,40.00
2023-05-03T01:58:56.682Z,40.30
2023-05-03T01:59:19.339Z,40.25
2023-05-03T01:59:40.966Z,40.02
2023-05-03T02:00:02.754Z,39.82
2023-05-03T02:00:34.358Z,40.61
2023-05-03T02:00:57.554Z,40.64
2023-05-03T02:01:19.267Z,40.48
2023-05-03T02:01:41.103Z,40.16
2023-05-03T02:02:02.797Z,39.90
2023-05-03T02:02:26.046Z,40.28
2023-05-03T02:02:47.796Z,40.74
2023-05-03T02:03:09.536Z,40.89
2023-05-03T02:03:31.142Z,40.50
2023-05-03T02:03:54.025Z,40.74
2023-05-03T02:04:15.756Z,40.68
2023-05-03T02:04:37.999Z,40.57
2023-05-03T02:04:59.765Z,40.50
2023-05-03T02:05:22.494Z,40.61
2023-05-03T02:05:44.062Z,40.72
2023-05-03T02:06:05.901Z,40.36
2023-05-03T02:06:27.715Z,39.71
2023-05-03T02:06:52.683Z,39.83
2023-05-03T02:07:14.338Z,40.26
2023-05-03T02:07:35.930Z,40.31
2023-05-03T02:07:57.698Z,40.11
2023-05-03T02:08:19.329Z,40.01
2023-05-03T02:08:41.894Z,39.53
2023-05-03T02:09:04.064Z,39.93
2023-05-03T02:09:25.773Z,40.48
2023-05-03T02:09:47.484Z,40.23
2023-05-03T02:10:14.472Z,40.30
2023-05-03T02:10:37.978Z,40.25
2023-05-03T02:10:59.585Z,40.18
2023-05-03T02:11:21.488Z,40.60
2023-05-03T02:11:45.153Z,40.54
2023-05-03T02:12:07.966Z,40.71
2023-05-03T02:12:29.708Z,40.88
2023-05-03T02:12:51.325Z,40.90
2023-05-03T02:13:14.954Z,41.04
2023-05-03T02:13:38.348Z,41.33
2023-05-03T02:13:59.970Z,40.86
2023-05-03T02:14:21.858Z,40.88
2023-05-03T02:14:44.402Z,41.21
2023-05-03T02:15:07.253Z,40.75
2023-05-03T02:15:29.803Z,40.65
2023-05-03T02:15:52.742Z,40.57
2023-05-03T02:16:14.419Z,40.46
2023-05-03T02:16:36.395Z,40.72
2023-05-03T02:16:58.110Z,40.82
2023-05-03T02:17:20.742Z,41.18
2023-05-03T02:17:45.411Z,40.71
2023-05-03T02:18:08.598Z,40.53
2023-05-03T02:18:31.334Z,40.45
2023-05-03T02:18:55.703Z,40.59
2023-05-03T02:19:17.310Z,40.57
2023-05-03T02:19:39.008Z,40.58
2023-05-03T02:20:02.030Z,40.57
2023-05-03T02:20:24.766Z,40.48
2023-05-03T02:20:46.907Z,40.73
2023-05-03T02:21:08.912Z,40.83
2023-05-03T02:21:31.495Z,41.25
2023-05-03T02:21:53.094Z,41.04
2023-05-03T02:22:14.677Z,40.94
2023-05-03T02:22:36.674Z,41.00
2023-05-03T02:22:58.774Z,41.11
2023-05-03T02:23:21.124Z,40.96
2023-05-03T02:23:43.702Z,41.08
2023-05-03T02:24:06.141Z,40.98
2023-05-03T02:24:29.524Z,41.33
2023-05-03T02:24:51.143Z,41.19
2023-05-03T02:25:12.989Z,41.19
2023-05-03T02:25:35.736Z,40.84
2023-05-03T02:25:59.177Z,41.08
2023-05-03T02:26:20.977Z,40.72
2023-05-03T02:26:42.582Z,40.60
2023-05-03T02:27:05.314Z,40.68
2023-05-03T02:27:27.905Z,40.66
2023-05-03T02:27:49.514Z,41.01
2023-05-03T02:28:11.230Z,41.00
2023-05-03T02:28:32.998Z,40.52
2023-05-03T02:28:56.769Z,40.38
2023-05-03T02:29:18.620Z,40.20
2023-05-03T02:29:40.741Z,40.20
2023-05-03T02:30:04.376Z,40.13
2023-05-03T02:30:33.893Z,40.47
2023-05-03T02:30:55.646Z,41.11
2023-05-03T02:31:18.660Z,41.00
2023-05-03T02:31:40.355Z,40.74
2023-05-03T02:32:05.366Z,40.85
2023-05-03T02:32:27.410Z,40.79
2023-05-03T02:32:49.118Z,40.56
2023-05-03T02:33:13.106Z,40.58
2023-05-03T02:33:35.881Z,40.29
2023-05-03T02:33:57.595Z,40.23
2023-05-03T02:34:19.254Z,40.26
2023-05-03T02:34:41.486Z,40.35
2023-05-03T02:35:07.349Z,40.34
2023-05-03T02:35:29.647Z,40.44
2023-05-03T02:35:51.557Z,40.78
2023-05-03T02:36:13.258Z,40.77
2023-05-03T02:36:36.124Z,40.61
2023-05-03T02:36:57.753Z,40.61
2023-05-03T02:37:19.537Z,40.75
2023-05-03T02:37:41.538Z,40.55
2023-05-03T02:38:07.507Z,40.58
2023-05-03T02:38:30.607Z,40.54
2023-05-03T02:38:52.221Z,40.85
2023-05-03T02:39:13.949Z,40.73
2023-05-03T02:39:35.929Z,40.82
2023-05-03T02:39:59.562Z,40.83
2023-05-03T02:40:21.753Z,40.87
2023-05-03T02:40:43.608Z,40.94
2023-05-03T02:41:06.764Z,40.69
2023-05-03T02:41:29.619Z,40.77
2023-05-03T02:41:51.981Z,40.91
2023-05-03T02:42:13.752Z,40.91
2023-05-03T02:42:35.449Z,41.03
2023-05-03T02:42:58.024Z,41.22
2023-05-03T02:43:23.238Z,40.91
2023-05-03T02:43:45.497Z,40.85
2023-05-03T02:44:07.951Z,41.28
2023-05-03T02:44:31.270Z,41.01
2023-05-03T02:44:55.035Z,41.09
2023-05-03T02:45:18.496Z,40.74
2023-05-03T02:45:40.201Z,40.82
2023-05-03T02:46:01.804Z,40.73
2023-05-03T02:46:24.585Z,40.99
2023-05-03T02:46:46.286Z,41.32
2023-05-03T02:47:10.919Z,41.01
2023-05-03T02:47:35.274Z,40.93
2023-05-03T02:47:59.071Z,40.69
2023-05-03T02:48:21.703Z,40.82
2023-05-03T02:48:43.348Z,41.02
2023-05-03T02:49:05.021Z,40.84
2023-05-03T02:49:29.125Z,40.99
2023-05-03T02:49:51.030Z,40.85
2023-05-03T02:50:12.698Z,40.97
2023-05-03T02:50:35.692Z,40.97
2023-05-03T02:50:58.266Z,40.84
2023-05-03T02:51:20.569Z,40.83
2023-05-03T02:51:42.178Z,41.29
2023-05-03T02:52:03.906Z,41.33
2023-05-03T02:52:26.469Z,41.55
2023-05-03T02:52:48.035Z,41.55
2023-05-03T02:53:09.757Z,41.19
2023-05-03T02:53:31.983Z,40.94
2023-05-03T02:53:57.944Z,41.15
2023-05-03T02:54:19.653Z,41.36
2023-05-03T02:54:41.339Z,41.30
2023-05-03T02:55:06.854Z,41.43
2023-05-03T02:55:30.318Z,41.37
2023-05-03T02:55:52.050Z,41.27
2023-05-03T02:56:15.101Z,41.22
2023-05-03T02:56:36.787Z,41.01
2023-05-03T02:56:59.439Z,40.83
2023-05-03T02:57:21.012Z,41.09
2023-05-03T02:57:43.025Z,40.96
2023-05-03T02:58:07.546Z,41.06
2023-05-03T02:58:29.178Z,41.00
2023-05-03T02:58:51.969Z,40.91
2023-05-03T02:59:14.775Z,41.16
2023-05-03T02:59:37.376Z,40.75
2023-05-03T02:59:59.118Z,40.78
2023-05-03T03:00:21.573Z,40.86
2023-05-03T03:00:43.216Z,40.81
2023-05-03T03:01:06.541Z,40.91
2023-05-03T03:01:28.897Z,41.25
2023-05-03T03:01:51.119Z,41.01
2023-05-03T03:02:12.836Z,41.03
2023-05-03T03:02:35.613Z,41.38
2023-05-03T03:02:57.440Z,41.14
2023-05-03T03:03:19.247Z,40.97
2023-05-03T03:03:41.257Z,41.34
2023-05-03T03:04:03.841Z,41.08
2023-05-03T03:04:26.840Z,41.09
2023-05-03T03:04:48.709Z,41.03
2023-05-03T03:05:10.439Z,40.99
2023-05-03T03:05:33.357Z,41.36
2023-05-03T03:05:56.216Z,41.13
2023-05-03T03:06:18.467Z,41.15
2023-05-03T03:06:40.335Z,41.26
2023-05-03T03:07:01.969Z,41.44
2023-05-03T03:07:25.673Z,41.49
2023-05-03T03:07:51.202Z,41.44
2023-05-03T03:08:12.894Z,41.36
2023-05-03T03:08:35.971Z,41.26
2023-05-03T03:08:59.587Z,41.46
2023-05-03T03:09:21.247Z,41.48
2023-05-03T03:09:42.856Z,41.33
2023-05-03T03:10:06.046Z,41.52
2023-05-03T03:10:27.738Z,41.57
2023-05-03T03:10:49.732Z,41.47
2023-05-03T03:11:11.859Z,41.52
2023-05-03T03:11:35.817Z,41.54
2023-05-03T03:11:57.492Z,41.62
2023-05-03T03:12:19.178Z,41.59
2023-05-03T03:12:41.384Z,41.66
2023-05-03T03:13:07.280Z,41.75
2023-05-03T03:13:32.878Z,41.75
2023-05-03T03:13:55.684Z,41.54
2023-05-03T03:14:20.033Z,41.88
2023-05-03T03:14:45.510Z,41.70
2023-05-03T03:15:08.532Z,41.77
2023-05-03T03:15:30.481Z,41.73
2023-05-03T03:15:52.179Z,41.85
2023-05-03T03:16:14.955Z,41.73
2023-05-03T03:16:36.630Z,41.99
2023-05-03T03:16:58.442Z,42.12
2023-05-03T03:17:20.744Z,42.00
2023-05-03T03:17:43.393Z,41.75
2023-05-03T03:18:06.042Z,41.70
2023-05-03T03:18:27.730Z,41.78
2023-05-03T03:18:49.382Z,42.04
2023-05-03T03:19:12.184Z,41.91
2023-05-03T03:19:33.785Z,41.76
2023-05-03T03:19:58.172Z,42.07
2023-05-03T03:20:20.436Z,41.93
2023-05-03T03:20:44.160Z,41.94
2023-05-03T03:21:05.950Z,41.63
2023-05-03T03:21:29.670Z,41.44
2023-05-03T03:21:51.802Z,41.42
2023-05-03T03:22:14.390Z,41.69
2023-05-03T03:22:36.149Z,41.83
2023-05-03T03:22:57.758Z,41.63
2023-05-03T03:23:19.392Z,41.62
2023-05-03T03:23:41.968Z,41.68
2023-05-03T03:24:04.009Z,41.61
2023-05-03T03:24:26.636Z,41.61
2023-05-03T03:24:48.565Z,41.57
2023-05-03T03:25:11.213Z,41.66
2023-05-03T03:25:34.046Z,41.62
2023-05-03T03:25:55.814Z,41.34
2023-05-03T03:26:17.462Z,41.36
2023-05-03T03:26:41.579Z,41.47
2023-05-03T03:27:03.648Z,41.47
2023-05-03T03:27:25.854Z,41.84
2023-05-03T03:27:47.662Z,42.21
2023-05-03T03:28:10.299Z,41.97
2023-05-03T03:28:32.403Z,41.82
2023-05-03T03:28:56.594Z,42.02
2023-05-03T03:29:18.323Z,42.10
2023-05-03T03:29:40.256Z,41.98
2023-05-03T03:30:03.484Z,41.99
2023-05-03T03:30:29.741Z,42.00
2023-05-03T03:31:03.762Z,41.88
2023-05-03T03:31:26.727Z,42.01
2023-05-03T03:31:50.884Z,42.02
2023-05-03T03:32:13.895Z,41.99
2023-05-03T03:32:35.803Z,42.05
2023-05-03T03:33:00.723Z,42.08
2023-05-03T03:33:29.165Z,42.21
2023-05-03T03:33:57.471Z,41.56
2023-05-03T03:34:23.371Z,41.40
2023-05-03T03:34:45.357Z,41.26
2023-05-03T03:35:08.564Z,41.65
2023-05-03T03:35:30.912Z,41.77
2023-05-03T03:35:53.509Z,42.22
2023-05-03T03:36:19.359Z,41.89
2023-05-03T03:36:43.000Z,41.44
2023-05-03T03:37:05.336Z,41.65
2023-05-03T03:37:27.658Z,41.62
2023-05-03T03:37:50.350Z,42.10
2023-05-03T03:38:12.312Z,41.71
2023-05-03T03:38:41.803Z,41.89
2023-05-03T03:39:05.997Z,41.82
2023-05-03T03:39:30.375Z,41.26
2023-05-03T03:39:52.029Z,41.40
2023-05-03T03:40:13.893Z,41.70
2023-05-03T03:40:35.846Z,41.78
2023-05-03T03:40:58.459Z,42.07
2023-05-03T03:41:23.022Z,42.00
2023-05-03T03:41:46.863Z,42.04
2023-05-03T03:42:10.716Z,42.24
2023-05-03T03:42:33.542Z,41.87
2023-05-03T03:42:55.278Z,41.87
2023-05-03T03:43:16.901Z,41.54
2023-05-03T03:43:38.889Z,41.43
2023-05-03T03:44:06.520Z,41.63
2023-05-03T03:44:28.165Z,41.73
2023-05-03T03:44:49.937Z,41.96
2023-05-03T03:45:11.656Z,41.75
2023-05-03T03:45:34.242Z,41.79
2023-05-03T03:45:56.015Z,42.01
2023-05-03T03:46:17.989Z,41.65
2023-05-03T03:46:41.295Z,41.74
2023-05-03T03:47:04.526Z,41.87
2023-05-03T03:47:26.877Z,41.84
2023-05-03T03:47:49.254Z,41.75
2023-05-03T03:48:11.685Z,41.59
2023-05-03T03:48:34.402Z,41.56
2023-05-03T03:48:56.016Z,41.46
2023-05-03T03:49:20.739Z,41.43
2023-05-03T03:49:42.621Z,41.45
2023-05-03T03:50:05.457Z,41.36
2023-05-03T03:50:29.484Z,41.47
2023-05-03T03:50:52.111Z,41.94
2023-05-03T03:51:16.539Z,41.93
2023-05-03T03:51:42.852Z,41.66
2023-05-03T03:52:05.035Z,41.55
2023-05-03T03:52:27.284Z,41.44
2023-05-03T03:52:49.183Z,41.35
2023-05-03T03:53:12.530Z,41.58
2023-05-03T03:53:36.001Z,41.74
2023-05-03T03:53:57.968Z,41.94
2023-05-03T03:54:23.344Z,42.01
2023-05-03T03:54:46.697Z,42.41
2023-05-03T03:55:08.831Z,42.24
2023-05-03T03:55:31.275Z,42.04
2023-05-03T03:55:53.009Z,42.08
2023-05-03T03:56:15.897Z,41.95
2023-05-03T03:56:37.891Z,41.91
2023-05-03T03:57:02.667Z,42.28
2023-05-03T03:57:29.655Z,41.92
2023-05-03T03:57:51.486Z,41.90
2023-05-03T03:58:13.313Z,41.98
2023-05-03T03:58:35.828Z,42.34
2023-05-03T03:58:58.698Z,42.27
2023-05-03T03:59:22.048Z,42.29
2023-05-03T03:59:44.316Z,42.33
2023-05-03T04:00:11.608Z,42.09
2023-05-03T04:00:42.724Z,42.21
2023-05-03T04:01:09.034Z,42.13
2023-05-03T04:01:31.442Z,42.27
2023-05-03T04:01:53.178Z,42.09
2023-05-03T04:02:15.848Z,42.73
2023-05-03T04:02:37.789Z,42.62
2023-05-03T04:03:01.060Z,42.56
2023-05-03T04:03:23.877Z,42.33
2023-05-03T04:03:46.307Z,42.47
2023-05-03T04:04:09.040Z,42.64
2023-05-03T04:04:32.443Z,42.35
2023-05-03T04:04:54.084Z,42.21
2023-05-03T04:05:17.267Z,42.34
2023-05-03T04:05:40.848Z,42.35
2023-05-03T04:06:04.088Z,42.02
2023-05-03T04:06:27.020Z,42.48
2023-05-03T04:06:50.262Z,42.38
2023-05-03T04:07:12.660Z,42.23
2023-05-03T04:07:34.334Z,42.36
2023-05-03T04:07:57.795Z,42.28
2023-05-03T04:08:25.031Z,42.29
2023-05-03T04:08:46.713Z,42.41
2023-05-03T04:09:10.378Z,42.42
2023-05-03T04:09:33.086Z,42.45
2023-05-03T04:09:56.483Z,42.40
2023-05-03T04:10:19.307Z,42.42
2023-05-03T04:10:40.939Z,42.37
2023-05-03T04:11:03.966Z,42.45
2023-05-03T04:11:30.137Z,42.38
2023-05-03T04:11:54.785Z,42.13
2023-05-03T04:12:18.015Z,42.45
2023-05-03T04:12:41.306Z,42.57
2023-05-03T04:13:03.176Z,42.42
2023-05-03T04:13:24.832Z,42.28
2023-05-03T04:13:48.250Z,42.20
2023-05-03T04:14:11.362Z,42.44
2023-05-03T04:14:33.891Z,42.30
2023-05-03T04:14:57.068Z,42.41
2023-05-03T04:15:18.923Z,42.54
2023-05-03T04:15:42.522Z,42.43
2023-05-03T04:16:04.985Z,42.36
2023-05-03T04:16:27.203Z,42.49
2023-05-03T04:16:49.420Z,42.31
2023-05-03T04:17:11.244Z,42.34
2023-05-03T04:17:34.983Z,42.56
2023-05-03T04:18:00.034Z,42.32
2023-05-03T04:18:22.163Z,42.67
2023-05-03T04:18:44.605Z,42.76
2023-05-03T04:19:07.253Z,42.74
2023-05-03T04:19:33.058Z,42.62
2023-05-03T04:19:54.946Z,42.87
2023-05-03T04:20:17.968Z,42.71
2023-05-03T04:20:44.135Z,42.63
2023-05-03T04:21:06.018Z,42.88
2023-05-03T04:21:28.263Z,42.71
2023-05-03T04:21:50.046Z,42.62
2023-05-03T04:22:14.514Z,42.59
2023-05-03T04:22:36.623Z,42.76
2023-05-03T04:22:58.635Z,42.85
2023-05-03T04:23:23.525Z,43.00
2023-05-03T04:23:45.250Z,43.04
2023-05-03T04:24:10.440Z,43.01
2023-05-03T04:24:32.011Z,43.20
2023-05-03T04:24:54.718Z,43.37
2023-05-03T04:25:17.098Z,43.45
2023-05-03T04:25:46.778Z,43.17
2023-05-03T04:26:17.221Z,42.93
2023-05-03T04:26:51.341Z,43.15
2023-05-03T04:27:21.981Z,43.12
2023-05-03T04:27:44.210Z,43.17
2023-05-03T04:28:06.777Z,43.13
2023-05-03T04:28:29.591Z,43.07
2023-05-03T04:28:52.409Z,42.73
2023-05-03T04:29:15.959Z,42.60
2023-05-03T04:29:39.520Z,42.42
2023-05-03T04:30:01.608Z,42.40
2023-05-03T04:30:25.774Z,42.32
2023-05-03T04:30:49.601Z,42.53
2023-05-03T04:31:16.771Z,42.44
2023-05-03T04:31:39.892Z,42.59
2023-05-03T04:32:02.465Z,42.30
2023-05-03T04:32:24.591Z,42.22
2023-05-03T04:32:49.735Z,42.62
2023-05-03T04:33:12.597Z,42.15
2023-05-03T04:33:35.451Z,41.96
2023-05-03T04:33:58.683Z,41.82
2023-05-03T04:34:22.165Z,41.69
2023-05-03T04:34:49.063Z,41.96
2023-05-03T04:35:12.336Z,41.72
2023-05-03T04:35:38.902Z,41.59
2023-05-03T04:36:06.090Z,41.76
2023-05-03T04:36:29.887Z,41.71
2023-05-03T04:36:52.450Z,41.67
2023-05-03T04:37:14.404Z,41.60
2023-05-03T04:37:37.164Z,41.38
2023-05-03T04:37:59.327Z,41.17
2023-05-03T04:38:22.461Z,41.05
2023-05-03T04:38:44.907Z,41.08
2023-05-03T04:39:07.828Z,41.35
2023-05-03T04:39:30.080Z,41.12
2023-05-03T04:39:51.883Z,41.26
2023-05-03T04:40:13.803Z,41.01
2023-05-03T04:40:40.722Z,41.21
2023-05-03T04:41:04.566Z,41.41
2023-05-03T04:41:26.160Z,41.54
2023-05-03T04:41:48.863Z,41.72
2023-05-03T04:42:12.078Z,41.80
2023-05-03T04:42:36.157Z,41.65
2023-05-03T04:42:58.762Z,41.71
2023-05-03T04:43:20.747Z,41.47
2023-05-03T04:43:44.752Z,41.55
2023-05-03T04:44:06.870Z,41.05
2023-05-03T04:44:29.344Z,41.17
2023-05-03T04:44:52.193Z,41.94
2023-05-03T04:45:14.593Z,42.01
2023-05-03T04:45:37.214Z,41.85
2023-05-03T04:45:59.069Z,41.48
2023-05-03T04:46:23.173Z,41.29
2023-05-03T04:46:46.172Z,41.28
2023-05-03T04:47:10.395Z,41.27
2023-05-03T04:47:32.620Z,41.30
2023-05-03T04:47:55.526Z,41.72
2023-05-03T04:48:18.098Z,41.68
2023-05-03T04:48:39.851Z,41.40
2023-05-03T04:49:02.465Z,41.18
2023-05-03T04:49:24.124Z,41.31
2023-05-03T04:49:46.852Z,41.08
2023-05-03T04:50:11.024Z,41.37
2023-05-03T04:50:36.314Z,41.27
2023-05-03T04:50:58.898Z,41.35
2023-05-03T04:51:20.609Z,41.60
2023-05-03T04:51:42.625Z,41.54
2023-05-03T04:52:05.662Z,41.85
2023-05-03T04:52:27.993Z,41.65
2023-05-03T04:52:50.581Z,41.18
2023-05-03T04:53:13.424Z,41.41
2023-05-03T04:53:38.644Z,41.47
2023-05-03T04:54:06.133Z,41.51
2023-05-03T04:54:28.074Z,41.17
2023-05-03T04:54:50.268Z,41.16
2023-05-03T04:55:13.449Z,41.39
2023-05-03T04:55:35.580Z,41.37
2023-05-03T04:55:58.811Z,41.61
2023-05-03T04:56:26.010Z,41.67
2023-05-03T04:56:54.326Z,42.05
2023-05-03T04:57:15.940Z,42.02
2023-05-03T04:57:38.837Z,42.15
2023-05-03T04:58:02.084Z,41.51
2023-05-03T04:58:25.043Z,41.60
2023-05-03T04:58:47.263Z,41.49
2023-05-03T04:59:10.719Z,41.37
2023-05-03T04:59:33.853Z,41.24
2023-05-03T04:59:55.492Z,41.24
2023-05-03T05:00:17.690Z,41.43
2023-05-03T05:00:46.769Z,42.16
2023-05-03T05:01:14.943Z,42.35
2023-05-03T05:01:36.690Z,41.83
2023-05-03T05:02:01.009Z,42.47